createdAt,value
2022-11-26T00:01:02.933Z,18576.31
2022-11-26T00:03:32.461Z,18560.06
2022-11-26T00:06:00.711Z,18568.19
2022-11-26T00:08:34.431Z,18560.06
2022-11-26T00:11:03.841Z,18533.66
2022-11-26T00:13:33.084Z,18549.91
2022-11-26T00:16:01.201Z,18564.13
2022-11-26T00:18:29.368Z,18549.91
2022-11-26T00:21:02.198Z,18566.16
2022-11-26T00:23:30.812Z,18576.31
2022-11-26T00:26:02.826Z,18570.22
2022-11-26T00:28:34.192Z,18576.31
2022-11-26T00:31:05.799Z,18570.22
2022-11-26T00:33:34.719Z,18594.63
2022-11-26T00:36:16.603Z,18562.09
2022-11-26T00:38:45.643Z,18631.19
2022-11-26T00:41:19.111Z,18614.94
2022-11-26T00:43:47.930Z,18631.19
2022-11-26T00:46:17.038Z,18586.50
2022-11-26T00:48:45.787Z,18582.44
2022-11-26T00:51:20.808Z,18614.94
2022-11-26T00:53:50.920Z,18606.81
2022-11-26T00:56:22.435Z,18612.91
2022-11-26T00:58:51.894Z,18602.75
2022-11-26T01:01:23.301Z,18592.59
2022-11-26T01:03:52.948Z,18580.41
2022-11-26T01:06:27.348Z,18574.28
2022-11-26T01:08:55.545Z,18568.19
2022-11-26T01:11:24.982Z,18562.09
2022-11-26T01:13:55.771Z,18535.69
2022-11-26T01:16:28.124Z,18572.25
2022-11-26T01:18:59.057Z,18547.88
2022-11-26T01:21:33.324Z,18539.75
2022-11-26T01:24:01.427Z,18529.59
2022-11-26T01:26:37.025Z,18537.72
2022-11-26T01:29:05.552Z,18533.66
2022-11-26T01:31:34.747Z,18521.47
2022-11-26T01:34:02.903Z,18509.28
2022-11-26T01:36:35.862Z,18523.50
2022-11-26T01:39:08.991Z,18531.63
2022-11-26T01:41:47.028Z,18505.22
2022-11-26T01:44:20.873Z,18545.84
2022-11-26T01:46:50.421Z,18535.69
2022-11-26T01:49:22.653Z,18515.38
2022-11-26T01:52:04.636Z,18503.19
2022-11-26T01:54:36.178Z,18491.00
2022-11-26T01:57:11.656Z,18486.94
2022-11-26T01:59:44.425Z,18513.34
2022-11-26T02:02:12.806Z,18515.38
2022-11-26T02:04:48.187Z,18529.59
2022-11-26T02:07:17.684Z,18482.88
2022-11-26T02:09:47.509Z,18460.53
2022-11-26T02:12:15.690Z,18464.59
2022-11-26T02:14:46.112Z,18495.06
2022-11-26T02:17:28.609Z,18511.31
2022-11-26T02:20:46.203Z,18501.16
2022-11-26T02:24:08.789Z,18529.59
2022-11-26T02:27:41.482Z,18523.50
2022-11-26T02:30:13.619Z,18495.06
2022-11-26T02:33:03.203Z,18511.31
2022-11-26T02:35:41.757Z,18507.25
2022-11-26T02:38:16.722Z,18503.19
2022-11-26T02:40:44.930Z,18505.22
2022-11-26T02:43:15.837Z,18499.13
2022-11-26T02:45:50.387Z,18501.16
2022-11-26T02:48:25.137Z,18503.19
2022-11-26T02:50:59.176Z,18480.84
2022-11-26T02:53:33.137Z,18464.59
2022-11-26T02:56:08.095Z,18493.03
2022-11-26T02:58:37.672Z,18464.59
2022-11-26T03:01:13.934Z,18486.94
2022-11-26T03:03:49.875Z,18462.56
2022-11-26T03:06:19.984Z,18482.88
2022-11-26T03:08:48.177Z,18499.13
2022-11-26T03:11:16.322Z,18491.00
2022-11-26T03:13:44.462Z,18491.00
2022-11-26T03:16:14.035Z,18499.13
2022-11-26T03:18:42.208Z,18507.25
2022-11-26T03:21:10.704Z,18466.63
2022-11-26T03:23:38.784Z,18529.59
2022-11-26T03:26:07.033Z,18511.31
2022-11-26T03:28:35.234Z,18511.31
2022-11-26T03:31:03.360Z,18531.63
2022-11-26T03:33:32.823Z,18556.00
2022-11-26T03:36:00.982Z,18529.59
2022-11-26T03:38:29.161Z,18515.38
2022-11-26T03:40:58.834Z,18539.75
2022-11-26T03:43:27.277Z,18564.13
2022-11-26T03:45:55.876Z,18527.56
2022-11-26T03:48:24.049Z,18558.03
2022-11-26T03:50:53.545Z,18582.44
2022-11-26T03:53:21.699Z,18551.94
2022-11-26T03:55:49.836Z,18560.06
2022-11-26T03:58:17.984Z,18543.81
2022-11-26T04:00:46.190Z,18560.06
2022-11-26T04:03:14.485Z,18566.16
2022-11-26T04:05:42.702Z,18521.47
2022-11-26T04:08:12.140Z,18523.50
2022-11-26T04:10:40.266Z,18521.47
2022-11-26T04:13:08.375Z,18545.84
2022-11-26T04:15:36.732Z,18523.50
2022-11-26T04:18:05.070Z,18527.56
2022-11-26T04:20:33.173Z,18525.53
2022-11-26T04:23:01.290Z,18497.09
2022-11-26T04:25:30.819Z,18566.16
2022-11-26T04:27:59.107Z,18503.19
2022-11-26T04:30:29.825Z,18523.50
2022-11-26T04:32:58.260Z,18505.22
2022-11-26T04:35:26.666Z,18529.59
2022-11-26T04:37:54.791Z,18547.88
2022-11-26T04:40:22.919Z,18553.97
2022-11-26T04:42:52.433Z,18523.50
2022-11-26T04:45:20.623Z,18533.66
2022-11-26T04:47:48.751Z,18521.47
2022-11-26T04:50:16.998Z,18529.59
2022-11-26T04:52:48.285Z,18505.22
2022-11-26T04:55:16.529Z,18564.13
2022-11-26T04:57:48.746Z,18523.50
2022-11-26T05:00:20.464Z,18525.53
2022-11-26T05:02:48.643Z,18525.53
2022-11-26T05:05:17.109Z,18537.72
2022-11-26T05:07:45.338Z,18527.56
2022-11-26T05:10:14.508Z,18501.16
2022-11-26T05:12:42.623Z,18503.19
2022-11-26T05:15:11.957Z,18499.13
2022-11-26T05:17:42.031Z,18497.09
2022-11-26T05:20:11.688Z,18497.09
2022-11-26T05:22:39.819Z,18493.03
2022-11-26T05:25:08.751Z,18486.94
2022-11-26T05:27:37.393Z,18458.50
2022-11-26T05:30:07.417Z,18428.03
2022-11-26T05:32:35.583Z,18442.25
2022-11-26T05:35:06.255Z,18434.13
2022-11-26T05:37:34.389Z,18442.25
2022-11-26T05:40:02.589Z,18415.81
2022-11-26T05:42:30.689Z,18425.97
2022-11-26T05:44:58.772Z,18391.44
2022-11-26T05:47:26.939Z,18428.03
2022-11-26T05:49:55.365Z,18397.53
2022-11-26T05:52:25.020Z,18411.75
2022-11-26T05:54:53.163Z,18377.22
2022-11-26T05:57:21.240Z,18354.88
2022-11-26T05:59:49.924Z,18393.47
2022-11-26T06:02:18.184Z,18375.19
2022-11-26T06:04:46.446Z,18379.25
2022-11-26T06:07:14.629Z,18377.22
2022-11-26T06:09:44.136Z,18356.91
2022-11-26T06:12:12.264Z,18360.97
2022-11-26T06:14:43.325Z,18342.69
2022-11-26T06:17:12.202Z,18334.56
2022-11-26T06:19:40.661Z,18326.44
2022-11-26T06:22:09.241Z,18346.75
2022-11-26T06:24:38.040Z,18342.69
2022-11-26T06:27:07.740Z,18318.31
2022-11-26T06:29:36.089Z,18302.06
2022-11-26T06:32:04.324Z,18314.25
2022-11-26T06:34:32.544Z,18271.59
2022-11-26T06:37:00.673Z,18324.41
2022-11-26T06:39:28.984Z,18271.59
2022-11-26T06:41:57.081Z,18263.47
2022-11-26T06:44:26.545Z,18269.56
2022-11-26T06:46:54.622Z,18285.81
2022-11-26T06:49:23.029Z,18269.56
2022-11-26T06:51:51.179Z,18253.31
2022-11-26T06:54:19.558Z,18245.19
2022-11-26T06:56:47.830Z,18222.81
2022-11-26T06:59:16.292Z,18237.06
2022-11-26T07:01:45.852Z,18194.38
2022-11-26T07:04:14.468Z,18176.09
2022-11-26T07:06:42.889Z,18176.09
2022-11-26T07:09:12.964Z,18196.41
2022-11-26T07:11:43.322Z,18180.16
2022-11-26T07:14:11.463Z,18198.44
2022-11-26T07:16:39.654Z,18151.72
2022-11-26T07:19:14.263Z,18123.28
2022-11-26T07:21:42.728Z,18115.16
2022-11-26T07:24:10.948Z,18119.22
2022-11-26T07:26:39.104Z,18102.97
2022-11-26T07:29:07.218Z,18066.41
2022-11-26T07:31:36.221Z,18086.72
2022-11-26T07:34:04.548Z,18066.41
2022-11-26T07:36:34.054Z,18068.44
2022-11-26T07:39:04.018Z,18078.59
2022-11-26T07:41:32.264Z,18054.22
2022-11-26T07:44:00.351Z,18054.22
2022-11-26T07:46:28.807Z,18098.91
2022-11-26T07:48:57.943Z,18078.59
2022-11-26T07:51:28.148Z,18086.72
2022-11-26T07:53:59.763Z,18086.72
2022-11-26T07:56:28.239Z,18082.66
2022-11-26T07:58:56.539Z,18058.28
2022-11-26T08:01:29.622Z,18050.16
2022-11-26T08:03:59.552Z,18070.47
2022-11-26T08:06:29.918Z,18062.34
2022-11-26T08:09:02.122Z,18056.25
2022-11-26T08:11:33.413Z,18074.53
2022-11-26T08:14:04.112Z,18044.06
2022-11-26T08:16:32.540Z,18107.03
2022-11-26T08:19:03.184Z,18094.84
2022-11-26T08:21:31.437Z,18088.75
2022-11-26T08:24:01.648Z,18082.66
2022-11-26T08:26:35.872Z,18090.78
2022-11-26T08:29:04.388Z,18064.38
2022-11-26T08:31:33.091Z,18098.91
2022-11-26T08:34:02.553Z,18113.13
2022-11-26T08:36:32.213Z,18125.31
2022-11-26T08:39:02.358Z,18137.50
2022-11-26T08:41:30.490Z,18127.34
2022-11-26T08:44:07.442Z,18098.91
2022-11-26T08:46:36.655Z,18113.13
2022-11-26T08:49:05.002Z,18105.00
2022-11-26T08:51:33.385Z,18149.69
2022-11-26T08:54:03.288Z,18143.59
2022-11-26T08:56:32.520Z,18147.66
2022-11-26T08:59:00.766Z,18165.94
2022-11-26T09:01:32.383Z,18182.19
2022-11-26T09:04:03.263Z,18137.50
2022-11-26T09:06:34.263Z,18194.38
2022-11-26T09:09:14.632Z,18204.53
2022-11-26T09:11:49.503Z,18263.47
2022-11-26T09:14:20.619Z,18273.63
2022-11-26T09:16:49.153Z,18263.47
2022-11-26T09:19:18.795Z,18293.94
2022-11-26T09:21:47.955Z,18332.53
2022-11-26T09:24:18.175Z,18401.59
2022-11-26T09:26:48.239Z,18468.66
2022-11-26T09:29:19.448Z,18482.88
2022-11-26T09:32:21.332Z,18586.50
2022-11-26T09:34:38.053Z,18631.19
2022-11-26T09:37:06.457Z,18641.34
2022-11-26T09:39:36.316Z,18684.00
2022-11-26T09:42:09.046Z,18686.03
2022-11-26T09:44:57.053Z,18702.28
2022-11-26T09:47:29.566Z,18736.84
2022-11-26T09:50:08.514Z,18761.22
2022-11-26T09:52:44.417Z,18777.47
2022-11-26T09:55:21.539Z,18767.31
2022-11-26T09:58:04.307Z,18799.81
2022-11-26T10:00:36.117Z,18822.19
2022-11-26T10:03:16.045Z,18805.91
2022-11-26T10:05:52.072Z,18822.19
2022-11-26T10:09:00.620Z,18824.22
2022-11-26T10:11:38.621Z,18824.22
2022-11-26T10:14:29.636Z,18834.38
2022-11-26T10:17:25.122Z,18854.69
2022-11-26T10:20:38.396Z,18844.53
2022-11-26T10:23:18.520Z,18879.06
2022-11-26T10:25:52.161Z,18879.06
2022-11-26T10:28:29.067Z,18881.09
2022-11-26T10:31:00.587Z,18913.59
2022-11-26T10:33:38.616Z,18862.81
2022-11-26T10:36:22.820Z,18862.81
2022-11-26T10:38:50.914Z,18895.31
2022-11-26T10:41:20.743Z,18891.25
2022-11-26T10:43:50.299Z,18911.56
2022-11-26T10:46:34.246Z,18929.88
2022-11-26T10:49:20.202Z,18901.41
2022-11-26T10:51:50.913Z,18903.44
2022-11-26T10:54:29.329Z,18899.38
2022-11-26T10:57:04.264Z,18919.69
2022-11-26T10:59:40.997Z,18938.00
2022-11-26T11:02:31.447Z,18935.97
2022-11-26T11:05:03.843Z,18958.31
2022-11-26T11:07:44.042Z,18938.00
2022-11-26T11:10:20.104Z,18968.47
2022-11-26T11:12:51.894Z,18972.53
2022-11-26T11:15:26.230Z,19009.09
2022-11-26T11:18:02.352Z,18946.13
2022-11-26T11:20:37.674Z,18984.72
2022-11-26T11:23:34.763Z,18923.78
2022-11-26T11:26:19.203Z,18976.59
2022-11-26T11:28:50.994Z,18970.50
2022-11-26T11:31:23.406Z,18976.59
2022-11-26T11:33:54.009Z,18958.31
2022-11-26T11:36:30.031Z,18988.78
2022-11-26T11:39:02.297Z,18923.78
2022-11-26T11:41:36.978Z,18893.28
2022-11-26T11:44:18.930Z,18897.34
2022-11-26T11:47:37.182Z,18907.50
2022-11-26T11:50:22.140Z,18854.69
2022-11-26T11:53:13.517Z,18893.28
2022-11-26T11:56:02.605Z,18913.59
2022-11-26T11:58:57.734Z,18938.00
2022-11-26T12:01:47.503Z,18988.78
2022-11-26T12:04:43.528Z,18980.66
2022-11-26T12:07:39.748Z,18968.47
2022-11-26T12:10:17.477Z,18911.56
2022-11-26T12:12:52.331Z,18952.22
2022-11-26T12:15:28.116Z,18956.28
2022-11-26T12:18:04.761Z,18978.63
2022-11-26T12:20:44.134Z,18982.69
2022-11-26T12:23:30.788Z,19037.56
2022-11-26T12:26:08.825Z,19055.84
2022-11-26T12:28:51.108Z,19106.66
2022-11-26T12:31:31.494Z,19214.34
2022-11-26T12:34:08.957Z,19265.13
2022-11-26T12:36:51.000Z,19281.41
2022-11-26T12:39:32.851Z,19393.16
2022-11-26T12:42:08.728Z,19427.72
2022-11-26T12:44:41.814Z,19472.41
2022-11-26T12:47:20.526Z,19464.28
2022-11-26T12:50:16.253Z,19435.84
2022-11-26T12:52:59.684Z,19401.28
2022-11-26T12:55:34.060Z,19356.59
2022-11-26T12:58:11.455Z,19342.34
2022-11-26T13:00:39.700Z,19269.22
2022-11-26T13:03:14.654Z,19230.59
2022-11-26T13:05:55.901Z,19230.59
2022-11-26T13:08:42.341Z,19254.97
2022-11-26T13:11:28.685Z,19220.44
2022-11-26T13:14:13.915Z,19216.38
2022-11-26T13:16:52.386Z,19210.28
2022-11-26T13:19:30.630Z,19228.56
2022-11-26T13:22:40.559Z,19265.13
2022-11-26T13:25:49.270Z,19273.28
2022-11-26T13:28:36.359Z,19236.69
2022-11-26T13:31:30.944Z,19238.72
2022-11-26T13:34:32.856Z,19214.34
2022-11-26T13:37:35.442Z,19234.66
2022-11-26T13:40:42.346Z,19216.38
2022-11-26T13:44:22.231Z,19177.75
2022-11-26T13:46:58.363Z,19171.66
2022-11-26T13:49:36.150Z,19149.31
2022-11-26T13:52:13.544Z,19151.34
2022-11-26T13:54:50.912Z,19151.34
2022-11-26T13:57:25.360Z,19167.59
2022-11-26T13:59:57.466Z,19163.53
2022-11-26T14:02:44.407Z,19171.66
2022-11-26T14:05:15.465Z,19165.56
2022-11-26T14:07:45.873Z,19139.16
2022-11-26T14:10:44.244Z,19133.06
2022-11-26T14:13:17.106Z,19153.38
2022-11-26T14:16:02.343Z,19139.16
2022-11-26T14:19:00.474Z,19120.88
2022-11-26T14:21:31.094Z,19086.31
2022-11-26T14:24:01.739Z,19122.91
2022-11-26T14:26:37.604Z,19112.75
2022-11-26T14:29:17.935Z,19084.28
2022-11-26T14:31:52.960Z,19094.44
2022-11-26T14:34:32.187Z,19094.44
2022-11-26T14:37:02.773Z,19066.00
2022-11-26T14:39:31.872Z,19057.88
2022-11-26T14:42:05.551Z,19051.78
2022-11-26T14:44:35.362Z,19027.41
2022-11-26T14:47:17.177Z,18974.56
2022-11-26T14:49:54.237Z,18996.91
2022-11-26T14:52:29.149Z,18986.75
2022-11-26T14:55:03.741Z,18974.56
2022-11-26T14:57:42.672Z,18966.44
2022-11-26T15:00:25.765Z,18972.53
2022-11-26T15:02:54.349Z,18966.44
2022-11-26T15:05:25.525Z,18905.47
2022-11-26T15:08:00.861Z,18948.16
2022-11-26T15:10:33.828Z,18938.00
2022-11-26T15:13:11.428Z,18927.84
2022-11-26T15:15:52.459Z,18915.63
2022-11-26T15:18:28.717Z,18923.78
2022-11-26T15:20:58.098Z,18903.44
2022-11-26T15:23:31.978Z,18860.78
2022-11-26T15:26:01.280Z,18868.91
2022-11-26T15:28:29.506Z,18860.78
2022-11-26T15:31:01.901Z,18818.09
2022-11-26T15:33:34.878Z,18836.41
2022-11-26T15:36:04.186Z,18842.50
2022-11-26T15:38:36.014Z,18809.97
2022-11-26T15:41:08.472Z,18793.72
2022-11-26T15:43:43.975Z,18773.41
2022-11-26T15:46:20.064Z,18755.13
2022-11-26T15:48:53.486Z,18755.13
2022-11-26T15:51:35.127Z,18761.22
2022-11-26T15:54:06.950Z,18724.66
2022-11-26T15:56:39.621Z,18753.09
2022-11-26T15:59:17.311Z,18814.03
2022-11-26T16:01:49.002Z,18793.72
2022-11-26T16:04:43.317Z,18765.28
2022-11-26T16:07:16.554Z,18757.16
2022-11-26T16:09:45.946Z,18751.06
2022-11-26T16:12:32.781Z,18773.41
2022-11-26T16:15:22.431Z,18775.44
2022-11-26T16:17:52.351Z,18740.91
2022-11-26T16:20:24.231Z,18765.28
2022-11-26T16:22:57.402Z,18769.34
2022-11-26T16:25:28.745Z,18747.00
2022-11-26T16:28:13.814Z,18771.38
2022-11-26T16:30:45.069Z,18738.88
2022-11-26T16:33:14.531Z,18744.97
2022-11-26T16:35:45.785Z,18740.91
2022-11-26T16:38:21.016Z,18700.25
2022-11-26T16:40:49.740Z,18684.00
2022-11-26T16:43:17.899Z,18675.88
2022-11-26T16:45:46.881Z,18673.84
2022-11-26T16:48:24.620Z,18667.75
2022-11-26T16:50:53.391Z,18663.69
2022-11-26T16:53:21.539Z,18647.44
2022-11-26T16:55:50.709Z,18635.25
2022-11-26T16:58:28.790Z,18639.31
2022-11-26T17:00:58.315Z,18637.28
2022-11-26T17:03:32.743Z,18631.19
2022-11-26T17:06:07.911Z,18598.69
2022-11-26T17:08:36.215Z,18576.31
2022-11-26T17:11:04.320Z,18598.69
2022-11-26T17:13:32.363Z,18580.41
2022-11-26T17:16:01.390Z,18566.16
2022-11-26T17:18:33.006Z,18572.25
2022-11-26T17:21:01.091Z,18582.44
2022-11-26T17:23:29.154Z,18598.69
2022-11-26T17:25:58.209Z,18576.31
2022-11-26T17:28:26.468Z,18582.44
2022-11-26T17:30:55.830Z,18541.78
2022-11-26T17:33:23.928Z,18568.19
2022-11-26T17:35:53.395Z,18562.09
2022-11-26T17:38:23.115Z,18509.28
2022-11-26T17:40:51.205Z,18509.28
2022-11-26T17:43:19.310Z,18529.59
2022-11-26T17:45:47.474Z,18505.22
2022-11-26T17:48:15.788Z,18507.25
2022-11-26T17:50:43.867Z,18493.03
2022-11-26T17:53:13.721Z,18511.31
2022-11-26T17:55:41.842Z,18497.09
2022-11-26T17:58:12.830Z,18456.47
2022-11-26T18:00:41.264Z,18466.63
2022-11-26T18:03:09.498Z,18460.53
2022-11-26T18:05:41.801Z,18423.94
2022-11-26T18:08:12.383Z,18440.22
2022-11-26T18:10:41.730Z,18428.03
2022-11-26T18:13:09.817Z,18442.25
2022-11-26T18:15:37.891Z,18444.28
2022-11-26T18:18:07.383Z,18413.78
2022-11-26T18:20:35.754Z,18425.97
2022-11-26T18:23:03.961Z,18446.31
2022-11-26T18:25:35.211Z,18397.53
2022-11-26T18:28:04.096Z,18395.50
2022-11-26T18:30:32.206Z,18391.44
2022-11-26T18:33:01.664Z,18379.25
2022-11-26T18:35:29.710Z,18373.16
2022-11-26T18:37:57.830Z,18340.66
2022-11-26T18:40:25.918Z,18383.31
2022-11-26T18:42:55.365Z,18344.72
2022-11-26T18:45:23.440Z,18350.81
2022-11-26T18:47:51.507Z,18367.06
2022-11-26T18:50:20.337Z,18316.28
2022-11-26T18:52:48.435Z,18306.13
2022-11-26T18:55:16.561Z,18326.44
2022-11-26T18:57:44.692Z,18322.38
2022-11-26T19:00:16.264Z,18308.16
2022-11-26T19:02:44.485Z,18314.25
2022-11-26T19:05:13.110Z,18265.50
2022-11-26T19:07:41.280Z,18269.56
2022-11-26T19:10:11.160Z,18263.47
2022-11-26T19:12:39.262Z,18241.13
2022-11-26T19:15:08.501Z,18224.84
2022-11-26T19:17:38.030Z,18220.78
2022-11-26T19:20:08.351Z,18241.13
2022-11-26T19:22:37.078Z,18204.53
2022-11-26T19:25:05.985Z,18196.41
2022-11-26T19:27:34.553Z,18167.97
2022-11-26T19:30:02.685Z,18192.34
2022-11-26T19:32:30.772Z,18165.94
2022-11-26T19:35:05.550Z,18190.31
2022-11-26T19:37:34.269Z,18176.09
2022-11-26T19:40:02.438Z,18149.69
2022-11-26T19:42:31.843Z,18163.91
2022-11-26T19:44:59.934Z,18149.69
2022-11-26T19:47:28.016Z,18180.16
2022-11-26T19:49:56.109Z,18131.41
2022-11-26T19:52:25.589Z,18090.78
2022-11-26T19:54:53.681Z,18123.28
2022-11-26T19:57:22.143Z,18147.66
2022-11-26T19:59:51.235Z,18143.59
2022-11-26T20:02:19.535Z,18123.28
2022-11-26T20:04:47.654Z,18127.34
2022-11-26T20:07:15.765Z,18184.22
2022-11-26T20:09:45.232Z,18139.53
2022-11-26T20:12:13.336Z,18115.16
2022-11-26T20:14:41.434Z,18145.63
2022-11-26T20:17:09.597Z,18145.63
2022-11-26T20:19:37.928Z,18143.59
2022-11-26T20:22:06.571Z,18155.78
2022-11-26T20:24:34.690Z,18119.22
2022-11-26T20:27:04.212Z,18167.97
2022-11-26T20:29:32.407Z,18119.22
2022-11-26T20:32:00.553Z,18115.16
2022-11-26T20:34:30.000Z,18115.16
2022-11-26T20:36:58.057Z,18127.34
2022-11-26T20:39:26.338Z,18115.16
2022-11-26T20:41:54.440Z,18113.13
2022-11-26T20:44:24.604Z,18113.13
2022-11-26T20:46:52.681Z,18107.03
2022-11-26T20:49:20.944Z,18127.34
2022-11-26T20:51:49.082Z,18131.41
2022-11-26T20:54:17.206Z,18129.38
2022-11-26T20:56:45.357Z,18096.88
2022-11-26T20:59:13.495Z,18098.91
2022-11-26T21:01:43.035Z,18113.13
2022-11-26T21:04:11.245Z,18119.22
2022-11-26T21:06:42.942Z,18080.63
2022-11-26T21:09:13.885Z,18046.09
2022-11-26T21:11:42.195Z,18082.66
2022-11-26T21:14:14.732Z,18092.81
2022-11-26T21:16:44.683Z,18096.88
2022-11-26T21:19:14.060Z,18064.38
2022-11-26T21:21:42.879Z,18094.84
2022-11-26T21:24:10.940Z,18074.53
2022-11-26T21:26:39.476Z,18074.53
2022-11-26T21:29:07.687Z,18074.53
2022-11-26T21:31:35.789Z,18105.00
2022-11-26T21:34:07.504Z,18090.78
2022-11-26T21:36:37.713Z,18068.44
2022-11-26T21:39:06.475Z,18082.66
2022-11-26T21:41:34.679Z,18064.38
2022-11-26T21:44:03.827Z,18068.44
2022-11-26T21:46:38.246Z,18084.69
2022-11-26T21:49:08.968Z,18100.94
2022-11-26T21:51:37.174Z,18068.44
2022-11-26T21:54:06.096Z,18094.84
2022-11-26T21:56:37.380Z,18096.88
2022-11-26T21:59:05.513Z,18052.19
2022-11-26T22:01:35.951Z,18062.34
2022-11-26T22:04:08.115Z,18082.66
2022-11-26T22:06:38.180Z,18054.22
2022-11-26T22:09:07.041Z,18062.34
2022-11-26T22:11:38.059Z,18064.38
2022-11-26T22:14:07.428Z,18058.28
2022-11-26T22:16:36.311Z,18040.00
2022-11-26T22:19:04.643Z,18068.44
2022-11-26T22:21:35.288Z,18070.47
2022-11-26T22:24:06.941Z,18040.00
2022-11-26T22:26:35.572Z,18080.63
2022-11-26T22:29:04.829Z,18090.78
2022-11-26T22:31:36.072Z,18076.56
2022-11-26T22:34:08.588Z,18062.34
2022-11-26T22:36:38.097Z,18060.31
2022-11-26T22:39:12.212Z,18072.50
2022-11-26T22:41:41.882Z,18042.03
2022-11-26T22:44:10.615Z,18046.09
2022-11-26T22:46:39.204Z,18040.00
2022-11-26T22:49:08.342Z,18078.59
2022-11-26T22:51:36.867Z,18068.44
2022-11-26T22:54:09.447Z,18058.28
2022-11-26T22:56:38.682Z,18048.13
2022-11-26T22:59:09.698Z,18046.09
2022-11-26T23:01:38.620Z,18060.31
2022-11-26T23:04:09.297Z,18070.47
2022-11-26T23:06:38.721Z,18062.34
2022-11-26T23:09:10.829Z,18056.25
2022-11-26T23:11:41.608Z,18088.75
2022-11-26T23:14:12.019Z,18062.34
2022-11-26T23:16:43.195Z,18078.59
2022-11-26T23:19:15.005Z,18054.22
2022-11-26T23:21:44.879Z,18007.50
2022-11-26T23:24:15.921Z,18048.13
2022-11-26T23:26:44.690Z,18082.66
2022-11-26T23:29:14.133Z,18054.22
2022-11-26T23:31:45.341Z,18072.50
2022-11-26T23:34:14.734Z,18060.31
2022-11-26T23:36:42.990Z,18062.34
2022-11-26T23:39:14.606Z,18070.47
2022-11-26T23:41:43.570Z,18066.41
2022-11-26T23:44:11.668Z,18029.84
2022-11-26T23:46:39.832Z,18076.56
2022-11-26T23:49:08.000Z,18042.03
2022-11-26T23:51:36.107Z,18046.09
2022-11-26T23:54:04.586Z,18066.41
2022-11-26T23:56:35.626Z,18086.72
2022-11-26T23:59:05.400Z,18033.91
